Terminal Aerodrome Forecast
Issued by NWS

Home | Current Version | Previous Version | Text Only | Print | Product List | Glossary On
Versions: 1 2 3 4 5 6 7 8 9 10 11 12 13 14 15 16 17 18
000
FTUS46 KSGX 280537
TAFSNA
TAF
KSNA 280537Z 2806/2906 VRB04KT P6SM OVC012
     FM281900 22008KT P6SM FEW020
     FM290200 VRB04KT P6SM SCT015
     FM290500 VRB03KT P6SM BKN010=

USA.gov is the U.S. government's official web portal to all federal, state and local government web resources and services.